sensor_id;sensor_type;location;lat;lon;timestamp;temperature;humidity
6102;DHT22;3081;50.584;7.032;2024-01-15T00:02:21;1.60;99.90
6102;DHT22;3081;50.584;7.032;2024-01-15T00:04:48;1.50;99.90
6102;DHT22;3081;50.584;7.032;2024-01-15T00:07:16;1.50;99.90
6102;DHT22;3081;50.584;7.032;2024-01-15T00:09:43;1.50;99.90
6102;DHT22;3081;50.584;7.032;2024-01-15T00:12:10;1.50;99.90
6102;DHT22;3081;50.584;7.032;2024-01-15T00:14:37;1.50;99.90
6102;DHT22;3081;50.584;7.032;2024-01-15T00:17:04;1.50;99.90
6102;DHT22;3081;50.584;7.032;2024-01-15T00:19:31;1.50;99.90
6102;DHT22;3081;50.584;7.032;2024-01-15T00:21:58;1.40;99.90
6102;DHT22;3081;50.584;7.032;2024-01-15T00:24:27;1.40;99.90
6102;DHT22;3081;50.584;7.032;2024-01-15T00:26:53;1.50;99.90
6102;DHT22;3081;50.584;7.032;2024-01-15T00:29:21;1.50;99.90
6102;DHT22;3081;50.584;7.032;2024-01-15T00:31:48;1.40;99.90
6102;DHT22;3081;50.584;7.032;2024-01-15T00:34:15;1.40;99.90
6102;DHT22;3081;50.584;7.032;2024-01-15T00:36:41;1.40;99.90
6102;DHT22;3081;50.584;7.032;2024-01-15T00:39:09;1.30;99.90
6102;DHT22;3081;50.584;7.032;2024-01-15T00:41:37;1.30;99.90
6102;DHT22;3081;50.584;7.032;2024-01-15T00:44:04;1.20;99.90
6102;DHT22;3081;50.584;7.032;2024-01-15T00:46:31;1.20;99.90
6102;DHT22;3081;50.584;7.032;2024-01-15T00:48:58;1.20;99.90
6102;DHT22;3081;50.584;7.032;2024-01-15T00:51:25;1.20;99.90
6102;DHT22;3081;50.584;7.032;2024-01-15T00:53:52;1.10;99.90
6102;DHT22;3081;50.584;7.032;2024-01-15T00:56:19;1.00;99.90
6102;DHT22;3081;50.584;7.032;2024-01-15T00:58:47;1.00;99.90
6102;DHT22;3081;50.584;7.032;2024-01-15T01:01:14;1.00;99.90
6102;DHT22;3081;50.584;7.032;2024-01-15T01:03:41;1.00;99.90
6102;DHT22;3081;50.584;7.032;2024-01-15T01:06:07;1.00;99.90
6102;DHT22;3081;50.584;7.032;2024-01-15T01:08:34;1.00;99.90
6102;DHT22;3081;50.584;7.032;2024-01-15T01:11:01;1.00;99.90
6102;DHT22;3081;50.584;7.032;2024-01-15T01:13:28;1.00;99.90
6102;DHT22;3081;50.584;7.032;2024-01-15T01:15:56;1.00;99.90
6102;DHT22;3081;50.584;7.032;2024-01-15T01:18:23;1.00;99.90
6102;DHT22;3081;50.584;7.032;2024-01-15T01:20:50;1.10;99.90
6102;DHT22;3081;50.584;7.032;2024-01-15T01:23:17;1.10;99.90
6102;DHT22;3081;50.584;7.032;2024-01-15T01:25:44;1.20;99.90
6102;DHT22;3081;50.584;7.032;2024-01-15T01:28:11;1.20;99.90
6102;DHT22;3081;50.584;7.032;2024-01-15T01:30:38;1.20;99.90
6102;DHT22;3081;50.584;7.032;2024-01-15T01:33:06;1.20;99.90
6102;DHT22;3081;50.584;7.032;2024-01-15T01:35:33;1.20;99.90
6102;DHT22;3081;50.584;7.032;2024-01-15T01:38:00;1.20;99.90
6102;DHT22;3081;50.584;7.032;2024-01-15T01:40:27;1.30;99.90
6102;DHT22;3081;50.584;7.032;2024-01-15T01:42:54;1.30;99.90
6102;DHT22;3081;50.584;7.032;2024-01-15T01:45:21;1.30;99.90
6102;DHT22;3081;50.584;7.032;2024-01-15T01:47:48;1.30;99.90
6102;DHT22;3081;50.584;7.032;2024-01-15T01:50:17;1.30;99.90
6102;DHT22;3081;50.584;7.032;2024-01-15T01:52:44;1.30;99.90
6102;DHT22;3081;50.584;7.032;2024-01-15T01:55:11;1.30;99.90
6102;DHT22;3081;50.584;7.032;2024-01-15T01:57:39;1.30;99.90
6102;DHT22;3081;50.584;7.032;2024-01-15T02:00:08;1.30;99.90
6102;DHT22;3081;50.584;7.032;2024-01-15T02:02:35;1.30;99.90
6102;DHT22;3081;50.584;7.032;2024-01-15T02:05:04;1.30;99.90
6102;DHT22;3081;50.584;7.032;2024-01-15T02:07:35;1.40;99.90
6102;DHT22;3081;50.584;7.032;2024-01-15T02:10:02;1.40;99.90
6102;DHT22;3081;50.584;7.032;2024-01-15T02:12:29;1.40;99.90
6102;DHT22;3081;50.584;7.032;2024-01-15T02:14:56;1.40;99.90
6102;DHT22;3081;50.584;7.032;2024-01-15T02:17:23;1.40;99.90
6102;DHT22;3081;50.584;7.032;2024-01-15T02:19:50;1.30;99.90
6102;DHT22;3081;50.584;7.032;2024-01-15T02:22:17;1.30;99.90
6102;DHT22;3081;50.584;7.032;2024-01-15T02:24:45;1.30;99.90
6102;DHT22;3081;50.584;7.032;2024-01-15T02:27:12;1.30;99.90
6102;DHT22;3081;50.584;7.032;2024-01-15T02:29:39;1.30;99.90
6102;DHT22;3081;50.584;7.032;2024-01-15T02:32:08;1.30;99.90
6102;DHT22;3081;50.584;7.032;2024-01-15T02:34:35;1.20;99.90
6102;DHT22;3081;50.584;7.032;2024-01-15T02:37:02;1.20;99.90
6102;DHT22;3081;50.584;7.032;2024-01-15T02:39:29;1.20;99.90
6102;DHT22;3081;50.584;7.032;2024-01-15T02:41:58;1.10;99.90
6102;DHT22;3081;50.584;7.032;2024-01-15T02:44:24;1.10;99.90
6102;DHT22;3081;50.584;7.032;2024-01-15T02:46:51;1.20;99.90
6102;DHT22;3081;50.584;7.032;2024-01-15T02:49:18;1.20;99.90
6102;DHT22;3081;50.584;7.032;2024-01-15T02:51:45;1.20;99.90
6102;DHT22;3081;50.584;7.032;2024-01-15T02:54:12;1.10;99.90
6102;DHT22;3081;50.584;7.032;2024-01-15T02:56:39;1.20;99.90
6102;DHT22;3081;50.584;7.032;2024-01-15T02:59:07;1.20;99.90
6102;DHT22;3081;50.584;7.032;2024-01-15T03:01:34;1.20;99.90
6102;DHT22;3081;50.584;7.032;2024-01-15T03:04:01;1.20;99.90
6102;DHT22;3081;50.584;7.032;2024-01-15T03:06:28;1.20;99.90
6102;DHT22;3081;50.584;7.032;2024-01-15T03:08:55;1.20;99.90
6102;DHT22;3081;50.584;7.032;2024-01-15T03:11:22;1.20;99.90
6102;DHT22;3081;50.584;7.032;2024-01-15T03:13:49;1.20;99.90
6102;DHT22;3081;50.584;7.032;2024-01-15T03:16:17;1.20;99.90
6102;DHT22;3081;50.584;7.032;2024-01-15T03:18:45;1.20;99.90
6102;DHT22;3081;50.584;7.032;2024-01-15T03:21:12;1.20;99.90
6102;DHT22;3081;50.584;7.032;2024-01-15T03:23:39;1.20;99.90
6102;DHT22;3081;50.584;7.032;2024-01-15T03:26:06;1.20;99.90
6102;DHT22;3081;50.584;7.032;2024-01-15T03:28:33;1.20;99.90
6102;DHT22;3081;50.584;7.032;2024-01-15T03:30:59;1.20;99.90
6102;DHT22;3081;50.584;7.032;2024-01-15T03:33:28;1.10;99.90
6102;DHT22;3081;50.584;7.032;2024-01-15T03:35:55;1.10;99.90
6102;DHT22;3081;50.584;7.032;2024-01-15T03:38:22;1.10;99.90
6102;DHT22;3081;50.584;7.032;2024-01-15T03:40:49;1.00;99.90
6102;DHT22;3081;50.584;7.032;2024-01-15T03:43:16;1.00;99.90
6102;DHT22;3081;50.584;7.032;2024-01-15T03:45:43;1.00;99.90
6102;DHT22;3081;50.584;7.032;2024-01-15T03:48:11;1.00;99.90
6102;DHT22;3081;50.584;7.032;2024-01-15T03:50:39;1.00;99.90
6102;DHT22;3081;50.584;7.032;2024-01-15T03:53:06;1.00;99.90
6102;DHT22;3081;50.584;7.032;2024-01-15T03:55:33;1.00;99.90
6102;DHT22;3081;50.584;7.032;2024-01-15T03:58:00;1.00;99.90
6102;DHT22;3081;50.584;7.032;2024-01-15T04:00:27;1.00;99.90
6102;DHT22;3081;50.584;7.032;2024-01-15T04:02:54;1.00;99.90
6102;DHT22;3081;50.584;7.032;2024-01-15T04:05:20;1.00;99.90
6102;DHT22;3081;50.584;7.032;2024-01-15T04:07:49;1.10;99.90
6102;DHT22;3081;50.584;7.032;2024-01-15T04:10:16;1.10;99.90
6102;DHT22;3081;50.584;7.032;2024-01-15T04:12:43;1.10;99.90
6102;DHT22;3081;50.584;7.032;2024-01-15T04:15:11;1.10;99.90
6102;DHT22;3081;50.584;7.032;2024-01-15T04:17:38;1.10;99.90
6102;DHT22;3081;50.584;7.032;2024-01-15T04:20:06;1.10;99.90
6102;DHT22;3081;50.584;7.032;2024-01-15T04:22:35;1.10;99.90
6102;DHT22;3081;50.584;7.032;2024-01-15T04:25:04;1.10;99.90
6102;DHT22;3081;50.584;7.032;2024-01-15T04:27:31;1.00;99.90
6102;DHT22;3081;50.584;7.032;2024-01-15T04:29:58;1.00;99.90
6102;DHT22;3081;50.584;7.032;2024-01-15T04:32:25;1.00;99.90
6102;DHT22;3081;50.584;7.032;2024-01-15T04:34:52;1.00;99.90
6102;DHT22;3081;50.584;7.032;2024-01-15T04:37:19;1.00;99.90
6102;DHT22;3081;50.584;7.032;2024-01-15T04:39:45;1.00;99.90
6102;DHT22;3081;50.584;7.032;2024-01-15T04:42:14;1.00;99.90
6102;DHT22;3081;50.584;7.032;2024-01-15T04:44:41;1.00;99.90
6102;DHT22;3081;50.584;7.032;2024-01-15T04:47:08;1.00;99.90
6102;DHT22;3081;50.584;7.032;2024-01-15T04:49:34;1.00;99.90
6102;DHT22;3081;50.584;7.032;2024-01-15T04:52:01;1.00;99.90
6102;DHT22;3081;50.584;7.032;2024-01-15T04:54:28;1.10;99.90
6102;DHT22;3081;50.584;7.032;2024-01-15T04:56:55;1.10;99.90
6102;DHT22;3081;50.584;7.032;2024-01-15T04:59:24;1.00;99.90
6102;DHT22;3081;50.584;7.032;2024-01-15T05:01:50;1.00;99.90
6102;DHT22;3081;50.584;7.032;2024-01-15T05:04:17;1.00;99.90
6102;DHT22;3081;50.584;7.032;2024-01-15T05:06:44;1.10;99.90
6102;DHT22;3081;50.584;7.032;2024-01-15T05:09:11;1.10;99.90
6102;DHT22;3081;50.584;7.032;2024-01-15T05:11:39;1.10;99.90
6102;DHT22;3081;50.584;7.032;2024-01-15T05:14:05;1.10;99.90
6102;DHT22;3081;50.584;7.032;2024-01-15T05:16:34;1.10;99.90
6102;DHT22;3081;50.584;7.032;2024-01-15T05:19:01;1.20;99.90
6102;DHT22;3081;50.584;7.032;2024-01-15T05:21:27;1.20;99.90
6102;DHT22;3081;50.584;7.032;2024-01-15T05:23:54;1.20;99.90
6102;DHT22;3081;50.584;7.032;2024-01-15T05:26:21;1.20;99.90
6102;DHT22;3081;50.584;7.032;2024-01-15T05:28:48;1.20;99.90
6102;DHT22;3081;50.584;7.032;2024-01-15T05:31:15;1.20;99.90
6102;DHT22;3081;50.584;7.032;2024-01-15T05:33:43;1.20;99.90
6102;DHT22;3081;50.584;7.032;2024-01-15T05:36:10;1.20;99.90
6102;DHT22;3081;50.584;7.032;2024-01-15T05:38:37;1.20;99.90
6102;DHT22;3081;50.584;7.032;2024-01-15T05:41:05;1.20;99.90
6102;DHT22;3081;50.584;7.032;2024-01-15T05:43:32;1.20;99.90
6102;DHT22;3081;50.584;7.032;2024-01-15T05:45:59;1.10;99.90
6102;DHT22;3081;50.584;7.032;2024-01-15T05:48:26;1.10;99.90
6102;DHT22;3081;50.584;7.032;2024-01-15T05:50:54;1.10;99.90
6102;DHT22;3081;50.584;7.032;2024-01-15T05:53:21;1.00;99.90
6102;DHT22;3081;50.584;7.032;2024-01-15T05:55:48;1.10;99.90
6102;DHT22;3081;50.584;7.032;2024-01-15T05:58:15;1.10;99.90
6102;DHT22;3081;50.584;7.032;2024-01-15T06:00:41;1.10;99.90
6102;DHT22;3081;50.584;7.032;2024-01-15T06:03:08;1.10;99.90
6102;DHT22;3081;50.584;7.032;2024-01-15T06:05:35;1.10;99.90
6102;DHT22;3081;50.584;7.032;2024-01-15T06:08:04;1.10;99.90
6102;DHT22;3081;50.584;7.032;2024-01-15T06:10:30;1.10;99.90
6102;DHT22;3081;50.584;7.032;2024-01-15T06:12:57;1.20;99.90
6102;DHT22;3081;50.584;7.032;2024-01-15T06:15:24;1.10;99.90
6102;DHT22;3081;50.584;7.032;2024-01-15T06:17:51;1.10;99.90
6102;DHT22;3081;50.584;7.032;2024-01-15T06:20:18;1.10;99.90
6102;DHT22;3081;50.584;7.032;2024-01-15T06:22:45;1.10;99.90
6102;DHT22;3081;50.584;7.032;2024-01-15T06:25:13;1.10;99.90
6102;DHT22;3081;50.584;7.032;2024-01-15T06:27:40;1.10;99.90
6102;DHT22;3081;50.584;7.032;2024-01-15T06:30:08;1.10;99.90
6102;DHT22;3081;50.584;7.032;2024-01-15T06:32:35;1.10;99.90
6102;DHT22;3081;50.584;7.032;2024-01-15T06:35:02;1.10;99.90
6102;DHT22;3081;50.584;7.032;2024-01-15T06:37:29;1.10;99.90
6102;DHT22;3081;50.584;7.032;2024-01-15T06:39:56;1.10;99.90
6102;DHT22;3081;50.584;7.032;2024-01-15T06:42:25;1.10;99.90
6102;DHT22;3081;50.584;7.032;2024-01-15T06:44:51;1.10;99.90
6102;DHT22;3081;50.584;7.032;2024-01-15T06:47:18;1.10;99.90
6102;DHT22;3081;50.584;7.032;2024-01-15T06:49:45;1.00;99.90
6102;DHT22;3081;50.584;7.032;2024-01-15T06:52:12;1.00;99.90
6102;DHT22;3081;50.584;7.032;2024-01-15T06:54:39;1.00;99.90
6102;DHT22;3081;50.584;7.032;2024-01-15T06:57:06;1.00;99.90
6102;DHT22;3081;50.584;7.032;2024-01-15T06:59:35;1.00;99.90
6102;DHT22;3081;50.584;7.032;2024-01-15T07:02:02;1.00;99.90
6102;DHT22;3081;50.584;7.032;2024-01-15T07:04:28;1.00;99.90
6102;DHT22;3081;50.584;7.032;2024-01-15T07:06:55;1.00;99.90
6102;DHT22;3081;50.584;7.032;2024-01-15T07:09:22;1.10;99.90
6102;DHT22;3081;50.584;7.032;2024-01-15T07:11:49;1.10;99.90
6102;DHT22;3081;50.584;7.032;2024-01-15T07:14:17;1.10;99.90
6102;DHT22;3081;50.584;7.032;2024-01-15T07:16:45;1.10;99.90
6102;DHT22;3081;50.584;7.032;2024-01-15T07:19:12;1.20;99.90
6102;DHT22;3081;50.584;7.032;2024-01-15T07:21:39;1.20;99.90
6102;DHT22;3081;50.584;7.032;2024-01-15T07:24:08;1.20;99.90
6102;DHT22;3081;50.584;7.032;2024-01-15T07:26:36;1.20;99.90
6102;DHT22;3081;50.584;7.032;2024-01-15T07:29:02;1.20;99.90
6102;DHT22;3081;50.584;7.032;2024-01-15T07:31:30;1.20;99.90
6102;DHT22;3081;50.584;7.032;2024-01-15T07:33:59;1.20;99.90
6102;DHT22;3081;50.584;7.032;2024-01-15T07:36:26;1.20;99.90
6102;DHT22;3081;50.584;7.032;2024-01-15T07:38:53;1.20;99.90
6102;DHT22;3081;50.584;7.032;2024-01-15T07:41:20;1.20;99.90
6102;DHT22;3081;50.584;7.032;2024-01-15T07:43:47;1.10;99.90
6102;DHT22;3081;50.584;7.032;2024-01-15T07:46:14;1.10;99.90
6102;DHT22;3081;50.584;7.032;2024-01-15T07:48:41;1.00;99.90
6102;DHT22;3081;50.584;7.032;2024-01-15T07:51:10;1.00;99.90
6102;DHT22;3081;50.584;7.032;2024-01-15T07:53:37;0.90;99.90
6102;DHT22;3081;50.584;7.032;2024-01-15T07:56:04;0.90;99.90
6102;DHT22;3081;50.584;7.032;2024-01-15T07:58:31;0.90;99.90
6102;DHT22;3081;50.584;7.032;2024-01-15T08:00:58;0.90;99.90
6102;DHT22;3081;50.584;7.032;2024-01-15T08:03:25;0.90;99.90
6102;DHT22;3081;50.584;7.032;2024-01-15T08:05:51;1.00;99.90
6102;DHT22;3081;50.584;7.032;2024-01-15T08:08:21;0.90;99.90
6102;DHT22;3081;50.584;7.032;2024-01-15T08:10:48;1.00;99.90
6102;DHT22;3081;50.584;7.032;2024-01-15T08:13:15;1.00;99.90
6102;DHT22;3081;50.584;7.032;2024-01-15T08:15:42;1.00;99.90
6102;DHT22;3081;50.584;7.032;2024-01-15T08:18:09;1.10;99.90
6102;DHT22;3081;50.584;7.032;2024-01-15T08:20:36;1.10;99.90
6102;DHT22;3081;50.584;7.032;2024-01-15T08:23:03;1.20;99.90
6102;DHT22;3081;50.584;7.032;2024-01-15T08:25:31;1.30;99.90
6102;DHT22;3081;50.584;7.032;2024-01-15T08:27:58;1.30;99.90
6102;DHT22;3081;50.584;7.032;2024-01-15T08:30:25;1.20;99.90
6102;DHT22;3081;50.584;7.032;2024-01-15T08:32:53;1.20;99.90
6102;DHT22;3081;50.584;7.032;2024-01-15T08:35:20;1.30;99.90
6102;DHT22;3081;50.584;7.032;2024-01-15T08:37:48;1.40;99.90
6102;DHT22;3081;50.584;7.032;2024-01-15T08:40:15;1.40;99.90
6102;DHT22;3081;50.584;7.032;2024-01-15T08:42:43;1.40;99.90
6102;DHT22;3081;50.584;7.032;2024-01-15T08:45:11;1.40;99.90
6102;DHT22;3081;50.584;7.032;2024-01-15T08:47:38;1.40;99.90
6102;DHT22;3081;50.584;7.032;2024-01-15T08:50:06;1.40;99.90
6102;DHT22;3081;50.584;7.032;2024-01-15T08:52:36;1.50;99.90
6102;DHT22;3081;50.584;7.032;2024-01-15T08:55:03;1.70;99.90
6102;DHT22;3081;50.584;7.032;2024-01-15T08:57:32;1.80;99.90
6102;DHT22;3081;50.584;7.032;2024-01-15T09:00:01;1.90;99.90
6102;DHT22;3081;50.584;7.032;2024-01-15T09:02:29;2.00;99.90
6102;DHT22;3081;50.584;7.032;2024-01-15T09:04:56;2.10;99.90
6102;DHT22;3081;50.584;7.032;2024-01-15T09:07:23;2.20;99.90
6102;DHT22;3081;50.584;7.032;2024-01-15T09:09:51;2.30;99.90
6102;DHT22;3081;50.584;7.032;2024-01-15T09:12:17;2.30;99.90
6102;DHT22;3081;50.584;7.032;2024-01-15T09:14:46;2.30;99.90
6102;DHT22;3081;50.584;7.032;2024-01-15T09:17:14;2.20;99.90
6102;DHT22;3081;50.584;7.032;2024-01-15T09:19:41;2.30;99.90
6102;DHT22;3081;50.584;7.032;2024-01-15T09:22:08;2.20;99.90
6102;DHT22;3081;50.584;7.032;2024-01-15T09:24:35;2.20;99.90
6102;DHT22;3081;50.584;7.032;2024-01-15T09:27:02;2.30;99.90
6102;DHT22;3081;50.584;7.032;2024-01-15T09:29:29;2.20;99.90
6102;DHT22;3081;50.584;7.032;2024-01-15T09:31:57;2.20;99.90
6102;DHT22;3081;50.584;7.032;2024-01-15T09:34:25;2.10;99.90
6102;DHT22;3081;50.584;7.032;2024-01-15T09:36:52;2.10;99.90
6102;DHT22;3081;50.584;7.032;2024-01-15T09:39:19;2.20;99.90
6102;DHT22;3081;50.584;7.032;2024-01-15T09:41:47;2.20;99.90
6102;DHT22;3081;50.584;7.032;2024-01-15T09:44:15;2.20;99.90
6102;DHT22;3081;50.584;7.032;2024-01-15T09:46:43;2.30;99.90
6102;DHT22;3081;50.584;7.032;2024-01-15T09:49:10;2.30;99.90
6102;DHT22;3081;50.584;7.032;2024-01-15T09:51:39;2.20;99.90
6102;DHT22;3081;50.584;7.032;2024-01-15T09:54:07;2.20;99.90
6102;DHT22;3081;50.584;7.032;2024-01-15T09:56:34;2.20;99.90
6102;DHT22;3081;50.584;7.032;2024-01-15T09:59:01;2.10;99.90
6102;DHT22;3081;50.584;7.032;2024-01-15T10:01:31;2.00;99.90
6102;DHT22;3081;50.584;7.032;2024-01-15T10:03:58;1.80;99.90
6102;DHT22;3081;50.584;7.032;2024-01-15T10:06:27;1.60;99.90
6102;DHT22;3081;50.584;7.032;2024-01-15T10:08:57;1.50;99.90
6102;DHT22;3081;50.584;7.032;2024-01-15T10:11:25;1.50;99.90
6102;DHT22;3081;50.584;7.032;2024-01-15T10:13:52;1.50;99.90
6102;DHT22;3081;50.584;7.032;2024-01-15T10:16:20;1.40;99.90
6102;DHT22;3081;50.584;7.032;2024-01-15T10:18:47;1.40;99.90
6102;DHT22;3081;50.584;7.032;2024-01-15T10:21:14;1.40;99.90
6102;DHT22;3081;50.584;7.032;2024-01-15T10:23:41;1.40;99.90
6102;DHT22;3081;50.584;7.032;2024-01-15T10:26:11;1.40;99.90
6102;DHT22;3081;50.584;7.032;2024-01-15T10:28:38;1.40;99.90
6102;DHT22;3081;50.584;7.032;2024-01-15T10:31:06;1.40;99.90
6102;DHT22;3081;50.584;7.032;2024-01-15T10:33:33;1.40;99.90
6102;DHT22;3081;50.584;7.032;2024-01-15T10:36:00;1.40;99.90
6102;DHT22;3081;50.584;7.032;2024-01-15T10:38:27;1.40;99.90
6102;DHT22;3081;50.584;7.032;2024-01-15T10:40:55;1.40;99.90
6102;DHT22;3081;50.584;7.032;2024-01-15T10:43:23;1.50;99.90
6102;DHT22;3081;50.584;7.032;2024-01-15T10:45:51;1.50;99.90
6102;DHT22;3081;50.584;7.032;2024-01-15T10:48:18;1.50;99.90
6102;DHT22;3081;50.584;7.032;2024-01-15T10:50:46;1.50;99.90
6102;DHT22;3081;50.584;7.032;2024-01-15T10:53:15;1.60;99.90
6102;DHT22;3081;50.584;7.032;2024-01-15T10:55:42;1.60;99.90
6102;DHT22;3081;50.584;7.032;2024-01-15T10:58:10;1.60;99.90
6102;DHT22;3081;50.584;7.032;2024-01-15T11:00:38;1.50;99.90
6102;DHT22;3081;50.584;7.032;2024-01-15T11:03:06;1.50;99.90
6102;DHT22;3081;50.584;7.032;2024-01-15T11:05:34;1.50;99.90
6102;DHT22;3081;50.584;7.032;2024-01-15T11:08:01;1.60;99.90
6102;DHT22;3081;50.584;7.032;2024-01-15T11:10:38;1.60;99.90
6102;DHT22;3081;50.584;7.032;2024-01-15T11:13:08;1.80;99.90
6102;DHT22;3081;50.584;7.032;2024-01-15T11:16:01;1.80;99.90
6102;DHT22;3081;50.584;7.032;2024-01-15T11:18:29;1.80;99.90
6102;DHT22;3081;50.584;7.032;2024-01-15T11:21:22;1.70;99.90
6102;DHT22;3081;50.584;7.032;2024-01-15T11:23:52;1.60;99.90
6102;DHT22;3081;50.584;7.032;2024-01-15T11:26:43;1.60;99.90
6102;DHT22;3081;50.584;7.032;2024-01-15T11:29:30;1.60;99.90
6102;DHT22;3081;50.584;7.032;2024-01-15T11:32:00;1.60;99.90
6102;DHT22;3081;50.584;7.032;2024-01-15T11:34:55;1.60;99.90
6102;DHT22;3081;50.584;7.032;2024-01-15T11:37:25;1.60;99.90
6102;DHT22;3081;50.584;7.032;2024-01-15T11:39:53;1.60;99.90
6102;DHT22;3081;50.584;7.032;2024-01-15T11:42:21;1.60;99.90
6102;DHT22;3081;50.584;7.032;2024-01-15T11:44:49;1.60;99.90
6102;DHT22;3081;50.584;7.032;2024-01-15T11:50:11;1.70;99.90
6102;DHT22;3081;50.584;7.032;2024-01-15T11:52:39;1.70;99.90
6102;DHT22;3081;50.584;7.032;2024-01-15T11:55:11;1.70;99.90
6102;DHT22;3081;50.584;7.032;2024-01-15T11:57:46;1.70;99.90
6102;DHT22;3081;50.584;7.032;2024-01-15T12:00:14;1.80;99.90
6102;DHT22;3081;50.584;7.032;2024-01-15T12:02:44;1.90;99.90
6102;DHT22;3081;50.584;7.032;2024-01-15T12:05:12;2.00;99.90
6102;DHT22;3081;50.584;7.032;2024-01-15T12:07:39;2.20;99.90
6102;DHT22;3081;50.584;7.032;2024-01-15T12:10:09;2.30;99.90
6102;DHT22;3081;50.584;7.032;2024-01-15T12:12:58;2.50;99.90
6102;DHT22;3081;50.584;7.032;2024-01-15T12:15:28;2.70;99.90
6102;DHT22;3081;50.584;7.032;2024-01-15T12:17:58;2.80;99.90
6102;DHT22;3081;50.584;7.032;2024-01-15T12:20:26;2.80;99.90
6102;DHT22;3081;50.584;7.032;2024-01-15T12:22:53;2.90;99.90
6102;DHT22;3081;50.584;7.032;2024-01-15T12:25:21;2.90;99.90
6102;DHT22;3081;50.584;7.032;2024-01-15T12:27:48;2.80;99.90
6102;DHT22;3081;50.584;7.032;2024-01-15T12:30:15;2.60;99.90
6102;DHT22;3081;50.584;7.032;2024-01-15T12:32:42;2.60;99.90
6102;DHT22;3081;50.584;7.032;2024-01-15T12:35:11;2.60;99.90
6102;DHT22;3081;50.584;7.032;2024-01-15T12:37:39;2.50;99.90
6102;DHT22;3081;50.584;7.032;2024-01-15T12:40:07;2.60;99.90
6102;DHT22;3081;50.584;7.032;2024-01-15T12:42:35;2.80;99.90
6102;DHT22;3081;50.584;7.032;2024-01-15T12:45:02;3.40;99.90
6102;DHT22;3081;50.584;7.032;2024-01-15T12:47:30;3.60;99.90
6102;DHT22;3081;50.584;7.032;2024-01-15T12:49:57;3.50;99.90
6102;DHT22;3081;50.584;7.032;2024-01-15T12:52:28;3.40;99.90
6102;DHT22;3081;50.584;7.032;2024-01-15T12:54:55;3.20;99.90
6102;DHT22;3081;50.584;7.032;2024-01-15T12:57:22;3.20;99.90
6102;DHT22;3081;50.584;7.032;2024-01-15T12:59:49;3.10;99.90
6102;DHT22;3081;50.584;7.032;2024-01-15T13:02:16;3.10;99.90
6102;DHT22;3081;50.584;7.032;2024-01-15T13:04:44;3.10;99.90
6102;DHT22;3081;50.584;7.032;2024-01-15T13:07:11;3.10;99.90
6102;DHT22;3081;50.584;7.032;2024-01-15T13:09:39;3.30;99.90
6102;DHT22;3081;50.584;7.032;2024-01-15T13:12:06;3.60;99.90
6102;DHT22;3081;50.584;7.032;2024-01-15T13:14:33;3.90;99.90
6102;DHT22;3081;50.584;7.032;2024-01-15T13:17:01;4.30;99.90
6102;DHT22;3081;50.584;7.032;2024-01-15T13:19:29;5.00;99.90
6102;DHT22;3081;50.584;7.032;2024-01-15T13:21:55;5.10;99.90
6102;DHT22;3081;50.584;7.032;2024-01-15T13:24:24;4.80;99.90
6102;DHT22;3081;50.584;7.032;2024-01-15T13:26:52;4.40;99.90
6102;DHT22;3081;50.584;7.032;2024-01-15T13:29:20;3.80;99.90
6102;DHT22;3081;50.584;7.032;2024-01-15T13:31:47;3.20;99.90
6102;DHT22;3081;50.584;7.032;2024-01-15T13:34:14;2.80;99.90
6102;DHT22;3081;50.584;7.032;2024-01-15T13:36:40;2.40;99.90
6102;DHT22;3081;50.584;7.032;2024-01-15T13:39:07;2.20;99.90
6102;DHT22;3081;50.584;7.032;2024-01-15T13:41:35;2.10;99.90
6102;DHT22;3081;50.584;7.032;2024-01-15T13:44:04;2.20;99.90
6102;DHT22;3081;50.584;7.032;2024-01-15T13:46:31;2.30;99.90
6102;DHT22;3081;50.584;7.032;2024-01-15T13:48:59;2.50;99.90
6102;DHT22;3081;50.584;7.032;2024-01-15T13:51:27;2.60;99.90
6102;DHT22;3081;50.584;7.032;2024-01-15T13:53:55;2.70;99.90
6102;DHT22;3081;50.584;7.032;2024-01-15T13:56:22;2.60;99.90
6102;DHT22;3081;50.584;7.032;2024-01-15T13:58:49;2.50;99.90
6102;DHT22;3081;50.584;7.032;2024-01-15T14:01:18;2.30;99.90
6102;DHT22;3081;50.584;7.032;2024-01-15T14:03:46;2.20;99.90
6102;DHT22;3081;50.584;7.032;2024-01-15T14:06:12;2.20;99.90
6102;DHT22;3081;50.584;7.032;2024-01-15T14:08:39;2.20;99.90
6102;DHT22;3081;50.584;7.032;2024-01-15T14:11:06;2.20;99.90
6102;DHT22;3081;50.584;7.032;2024-01-15T14:13:33;2.30;99.90
6102;DHT22;3081;50.584;7.032;2024-01-15T14:16:00;2.30;99.90
6102;DHT22;3081;50.584;7.032;2024-01-15T14:18:29;2.40;99.90
6102;DHT22;3081;50.584;7.032;2024-01-15T14:20:56;2.50;99.90
6102;DHT22;3081;50.584;7.032;2024-01-15T14:23:22;2.40;99.90
6102;DHT22;3081;50.584;7.032;2024-01-15T14:25:49;2.30;99.90
6102;DHT22;3081;50.584;7.032;2024-01-15T14:28:16;2.10;99.90
6102;DHT22;3081;50.584;7.032;2024-01-15T14:30:43;2.00;99.90
6102;DHT22;3081;50.584;7.032;2024-01-15T14:33:10;1.80;99.90
6102;DHT22;3081;50.584;7.032;2024-01-15T14:35:38;1.70;99.90
6102;DHT22;3081;50.584;7.032;2024-01-15T14:38:05;1.70;99.90
6102;DHT22;3081;50.584;7.032;2024-01-15T14:40:34;1.70;99.90
6102;DHT22;3081;50.584;7.032;2024-01-15T14:43:00;1.70;99.90
6102;DHT22;3081;50.584;7.032;2024-01-15T14:45:28;1.60;99.90
6102;DHT22;3081;50.584;7.032;2024-01-15T14:47:55;1.70;99.90
6102;DHT22;3081;50.584;7.032;2024-01-15T14:50:23;1.80;99.90
6102;DHT22;3081;50.584;7.032;2024-01-15T14:52:52;1.80;99.90
6102;DHT22;3081;50.584;7.032;2024-01-15T14:55:19;1.80;99.90
6102;DHT22;3081;50.584;7.032;2024-01-15T14:57:48;1.80;99.90
6102;DHT22;3081;50.584;7.032;2024-01-15T15:00:17;1.80;99.90
6102;DHT22;3081;50.584;7.032;2024-01-15T15:02:44;1.80;99.90
6102;DHT22;3081;50.584;7.032;2024-01-15T15:05:11;1.90;99.90
6102;DHT22;3081;50.584;7.032;2024-01-15T15:07:39;1.90;99.90
6102;DHT22;3081;50.584;7.032;2024-01-15T15:10:08;1.90;99.90
6102;DHT22;3081;50.584;7.032;2024-01-15T15:12:36;1.80;99.90
6102;DHT22;3081;50.584;7.032;2024-01-15T15:15:04;1.80;99.90
6102;DHT22;3081;50.584;7.032;2024-01-15T15:17:32;1.80;99.90
6102;DHT22;3081;50.584;7.032;2024-01-15T15:20:00;1.80;99.90
6102;DHT22;3081;50.584;7.032;2024-01-15T15:22:28;1.80;99.90
6102;DHT22;3081;50.584;7.032;2024-01-15T15:24:55;1.80;99.90
6102;DHT22;3081;50.584;7.032;2024-01-15T15:27:23;1.80;99.90
6102;DHT22;3081;50.584;7.032;2024-01-15T15:29:50;1.80;99.90
6102;DHT22;3081;50.584;7.032;2024-01-15T15:32:17;1.80;99.90
6102;DHT22;3081;50.584;7.032;2024-01-15T15:34:43;1.80;99.90
6102;DHT22;3081;50.584;7.032;2024-01-15T15:37:11;1.80;99.90
6102;DHT22;3081;50.584;7.032;2024-01-15T15:39:41;1.80;99.90
6102;DHT22;3081;50.584;7.032;2024-01-15T15:42:08;1.70;99.90
6102;DHT22;3081;50.584;7.032;2024-01-15T15:44:36;1.70;99.90
6102;DHT22;3081;50.584;7.032;2024-01-15T15:47:09;1.60;99.90
6102;DHT22;3081;50.584;7.032;2024-01-15T15:49:36;1.50;99.90
6102;DHT22;3081;50.584;7.032;2024-01-15T15:52:03;1.50;99.90
6102;DHT22;3081;50.584;7.032;2024-01-15T15:54:30;1.40;99.90
6102;DHT22;3081;50.584;7.032;2024-01-15T15:56:57;1.40;99.90
6102;DHT22;3081;50.584;7.032;2024-01-15T15:59:24;1.40;99.90
6102;DHT22;3081;50.584;7.032;2024-01-15T16:01:52;1.30;99.90
6102;DHT22;3081;50.584;7.032;2024-01-15T16:04:19;1.40;99.90
6102;DHT22;3081;50.584;7.032;2024-01-15T16:06:46;1.30;99.90
6102;DHT22;3081;50.584;7.032;2024-01-15T16:09:13;1.30;99.90
6102;DHT22;3081;50.584;7.032;2024-01-15T16:11:40;1.30;99.90
6102;DHT22;3081;50.584;7.032;2024-01-15T16:14:07;1.30;99.90
6102;DHT22;3081;50.584;7.032;2024-01-15T16:16:35;1.30;99.90
6102;DHT22;3081;50.584;7.032;2024-01-15T16:19:04;1.30;99.90
6102;DHT22;3081;50.584;7.032;2024-01-15T16:21:30;1.30;99.90
6102;DHT22;3081;50.584;7.032;2024-01-15T16:23:58;1.30;99.90